Marlborough, MA

2:44 PM EDT on October 30, 2014 (GMT -0400)
Hartling Weather | Change Station
CLOSE
Current Station
Personal Weather Station
Location: Marlborough, MA
Elevation: 341 ft
Nearby Weather Stations

Elev 341 ft 42.35 °N, 71.59 °W | Updated 2 minutes ago

Partly Cloudy
Partly Cloudy
54.9 °F
Feels Like 54.9 °F
N
2.0
Wind Variable Wind from NW
Gusts 4.0 mph

Today
High -- | Low -- °F
--% Chance of Precip.
Yesterday
High -- | Low -- °F
Precip. -- in
7:17 AM 5:42 PM
Waxing Crescent, 46% visible
Pressure 29.94 in
Visibility 10.0 miles
Clouds Few 4800 ft
Overcast 7000 ft
Dew Point 34 °F
Humidity 45%
Rainfall 0.00 in
Snow Depth Not available.
UV 0.0 out of 12
Pollen .90 out of 12
Air Quality Not available.
Flu Activity Not available.
METAR KBED 301756Z 30007KT 10SM FEW048 OVC070 13/02 A2990 RMK AO2 SLP139 T01330022 10139 20017 56009

More Conditions Fewer Conditions

Pressure 29.94 in
Visibility 10.0 miles
Clouds Few 4800 ft
Overcast 7000 ft
Dew Point 34 °F
Humidity 45%
Rainfall 0.00 in
Snow Depth Not available.
UV 0.0 out of 12
Pollen .90 out of 12
Air Quality Not available.
Flu Activity Not available.
METAR KBED 301756Z 30007KT 10SM FEW048 OVC070 13/02 A2990 RMK AO2 SLP139 T01330022 10139 20017 56009

More Conditions Fewer Conditions

10-Day Weather Forecast

Almanac

Astronomy

Oct. 30, 2014 Rise Set
Actual Time
Civil Twilight
Nautical Twilight
Astronomical Twilight
Moon
Length of Visible Light
Length of Day
Tomorrow will be .
, % of the Moon is Illuminated

Today's Extremes

State Highs State Lows

Community

WunderPhotos

Upload Photos

1,766,425 photos uploaded!

WunderBlogs® & News

Nearby

Air Quality

  Air Quality AQ Index Pollutant
Not available.

Snow Depth

Station Depth Elevation

Earthquake Activity

City Distance Mag. Time & Date
Minimum magnitude displayed is 2.5.

Coastal Water Temperatures

Place Temperature

Nearby Weather Stations